CSB0701 EPWR-EPGD
Flight info
| Callsign | CSB0701 |
|---|---|
| Flight time | 0h 50m |
| Altitude | 29000 |
| Route | XIDNA L617 ADVAB P733 IRLUN |
| Aircraft | A320/M-SDE3FGHIRWY/LB1 |
Departure
| Time | 2026-05-06 17:25 |
|---|---|
| Airport | Copernicus Wrocław Airport (EPWR) |
Arrival
| Time | 2026-05-06 18:15 |
|---|---|
| Airport | Gdańsk Lech Wałęsa Airport (EPGD) |
| Time | Latitude | Longitude | Altitude | Speed | Heading |
|---|---|---|---|---|---|
| 2026-05-06 17:05 | 51.10948 | 16.87723 | 404 ft | 0 kts | 26° |
| 2026-05-06 17:16 | 51.10944 | 16.87720 | 403 ft | 3 kts | 26° |
| 2026-05-06 17:16 | 51.10920 | 16.87701 | 401 ft | 4 kts | 33° |
| 2026-05-06 17:17 | 51.10901 | 16.87673 | 402 ft | 4 kts | 65° |
| 2026-05-06 17:17 | 51.10898 | 16.87638 | 401 ft | 2 kts | 115° |
| 2026-05-06 17:17 | 51.10901 | 16.87629 | 400 ft | 0 kts | 116° |
| 2026-05-06 17:19 | 51.10898 | 16.87638 | 401 ft | 4 kts | 116° |
| 2026-05-06 17:20 | 51.10867 | 16.87737 | 400 ft | 15 kts | 116° |
| 2026-05-06 17:20 | 51.10810 | 16.87921 | 400 ft | 20 kts | 114° |
| 2026-05-06 17:20 | 51.10748 | 16.88125 | 401 ft | 21 kts | 116° |
| 2026-05-06 17:20 | 51.10682 | 16.88336 | 403 ft | 20 kts | 115° |
| 2026-05-06 17:21 | 51.10628 | 16.88518 | 403 ft | 19 kts | 116° |
| 2026-05-06 17:21 | 51.10563 | 16.88728 | 401 ft | 22 kts | 116° |
| 2026-05-06 17:21 | 51.10493 | 16.88952 | 403 ft | 23 kts | 116° |
| 2026-05-06 17:21 | 51.10424 | 16.89183 | 403 ft | 23 kts | 116° |
| 2026-05-06 17:22 | 51.10353 | 16.89414 | 402 ft | 24 kts | 116° |
| 2026-05-06 17:22 | 51.10283 | 16.89641 | 402 ft | 21 kts | 115° |
| 2026-05-06 17:22 | 51.10218 | 16.89855 | 400 ft | 17 kts | 115° |
| 2026-05-06 17:22 | 51.10180 | 16.89970 | 403 ft | 9 kts | 136° |
| 2026-05-06 17:23 | 51.10123 | 16.89956 | 403 ft | 10 kts | 206° |
| 2026-05-06 17:23 | 51.10056 | 16.89904 | 403 ft | 12 kts | 206° |
| 2026-05-06 17:23 | 51.09999 | 16.89859 | 400 ft | 5 kts | 206° |
| 2026-05-06 17:23 | 51.09957 | 16.89828 | 403 ft | 8 kts | 206° |
| 2026-05-06 17:24 | 51.09909 | 16.89770 | 401 ft | 8 kts | 250° |
| 2026-05-06 17:24 | 51.09925 | 16.89695 | 403 ft | 8 kts | 296° |
| 2026-05-06 17:24 | 51.10003 | 16.89444 | 406 ft | 57 kts | 295° |
| 2026-05-06 17:24 | 51.10279 | 16.88532 | 403 ft | 122 kts | 295° |
| 2026-05-06 17:25 | 51.10722 | 16.87068 | 461 ft | 164 kts | 297° |
| 2026-05-06 17:25 | 51.11198 | 16.85488 | 1150 ft | 155 kts | 295° |
| 2026-05-06 17:25 | 51.11667 | 16.83976 | 1852 ft | 154 kts | 293° |
| 2026-05-06 17:25 | 51.12158 | 16.82409 | 2359 ft | 166 kts | 293° |
| 2026-05-06 17:26 | 51.12697 | 16.80654 | 2693 ft | 184 kts | 294° |
| 2026-05-06 17:26 | 51.13283 | 16.78727 | 3056 ft | 205 kts | 292° |
| 2026-05-06 17:26 | 51.13934 | 16.76577 | 3405 ft | 228 kts | 293° |
| 2026-05-06 17:26 | 51.14659 | 16.74178 | 3874 ft | 251 kts | 293° |
| 2026-05-06 17:27 | 51.15439 | 16.71604 | 4603 ft | 263 kts | 293° |
| 2026-05-06 17:27 | 51.16249 | 16.68946 | 5465 ft | 270 kts | 293° |
| 2026-05-06 17:27 | 51.17074 | 16.66241 | 6365 ft | 273 kts | 292° |
| 2026-05-06 17:27 | 51.17935 | 16.63512 | 7234 ft | 279 kts | 298° |
| 2026-05-06 17:28 | 51.19228 | 16.61154 | 8098 ft | 289 kts | 318° |
| 2026-05-06 17:28 | 51.21026 | 16.59610 | 8968 ft | 300 kts | 340° |
| 2026-05-06 17:28 | 51.23115 | 16.59193 | 9800 ft | 309 kts | 2° |
| 2026-05-06 17:28 | 51.25212 | 16.60064 | 10551 ft | 316 kts | 26° |
| 2026-05-06 17:29 | 51.27163 | 16.61745 | 11330 ft | 320 kts | 28° |
| 2026-05-06 17:29 | 51.29127 | 16.63483 | 12100 ft | 325 kts | 28° |
| 2026-05-06 17:29 | 51.31113 | 16.65246 | 12881 ft | 329 kts | 28° |
| 2026-05-06 17:29 | 51.33129 | 16.67032 | 13642 ft | 333 kts | 28° |
| 2026-05-06 17:30 | 51.35149 | 16.68888 | 14316 ft | 338 kts | 33° |
| 2026-05-06 17:30 | 51.36952 | 16.71335 | 14973 ft | 342 kts | 48° |
| 2026-05-06 17:30 | 51.38372 | 16.74405 | 15627 ft | 345 kts | 63° |
| 2026-05-06 17:30 | 51.39467 | 16.77836 | 16281 ft | 348 kts | 65° |
| 2026-05-06 17:31 | 51.40624 | 16.81264 | 16943 ft | 353 kts | 57° |
| 2026-05-06 17:31 | 51.42212 | 16.84296 | 17590 ft | 358 kts | 43° |
| 2026-05-06 17:31 | 51.44225 | 16.86725 | 17991 ft | 371 kts | 28° |
| 2026-05-06 17:31 | 51.46643 | 16.88373 | 18126 ft | 387 kts | 14° |
| 2026-05-06 17:32 | 51.49281 | 16.89615 | 18347 ft | 401 kts | 14° |
| 2026-05-06 17:32 | 51.51977 | 16.90895 | 18810 ft | 407 kts | 14° |
| 2026-05-06 17:32 | 51.54704 | 16.92210 | 19347 ft | 411 kts | 14° |
| 2026-05-06 17:32 | 51.57462 | 16.93556 | 19868 ft | 416 kts | 14° |
| 2026-05-06 17:33 | 51.60239 | 16.94924 | 20407 ft | 420 kts | 14° |
| 2026-05-06 17:33 | 51.63048 | 16.96310 | 20952 ft | 424 kts | 14° |
| 2026-05-06 17:33 | 51.65896 | 16.97588 | 21488 ft | 426 kts | 8° |
| 2026-05-06 17:33 | 51.68827 | 16.98164 | 21868 ft | 423 kts | 357° |
| 2026-05-06 17:34 | 51.71751 | 16.97916 | 22320 ft | 420 kts | 347° |
| 2026-05-06 17:34 | 51.74584 | 16.96879 | 22785 ft | 416 kts | 336° |
| 2026-05-06 17:34 | 51.77287 | 16.95230 | 23251 ft | 416 kts | 333° |
| 2026-05-06 17:34 | 51.79995 | 16.93516 | 23643 ft | 419 kts | 333° |
| 2026-05-06 17:35 | 51.82718 | 16.91805 | 24018 ft | 421 kts | 333° |
| 2026-05-06 17:35 | 51.85463 | 16.90095 | 24403 ft | 424 kts | 333° |
| 2026-05-06 17:35 | 51.88223 | 16.88374 | 24783 ft | 426 kts | 333° |
| 2026-05-06 17:36 | 51.93784 | 16.84890 | 25573 ft | 431 kts | 333° |
| 2026-05-06 17:36 | 51.96586 | 16.83123 | 26013 ft | 433 kts | 333° |
| 2026-05-06 17:36 | 51.99399 | 16.81348 | 26419 ft | 435 kts | 333° |
| 2026-05-06 17:36 | 52.02233 | 16.79559 | 26832 ft | 437 kts | 333° |
| 2026-05-06 17:37 | 52.05074 | 16.77776 | 27264 ft | 440 kts | 334° |
| 2026-05-06 17:37 | 52.08059 | 16.76478 | 27688 ft | 449 kts | 346° |
| 2026-05-06 17:37 | 52.11198 | 16.76098 | 28125 ft | 457 kts | 357° |
| 2026-05-06 17:37 | 52.14377 | 16.76670 | 28568 ft | 464 kts | 8° |
| 2026-05-06 17:38 | 52.17498 | 16.78208 | 28785 ft | 473 kts | 20° |
| 2026-05-06 17:38 | 52.20370 | 16.80702 | 28808 ft | 464 kts | 33° |
| 2026-05-06 17:38 | 52.25636 | 16.86589 | 28809 ft | 456 kts | 33° |
| 2026-05-06 17:39 | 52.30868 | 16.92425 | 28804 ft | 455 kts | 33° |
| 2026-05-06 17:39 | 52.36102 | 16.98231 | 28805 ft | 455 kts | 33° |
| 2026-05-06 17:40 | 52.41340 | 17.04055 | 28805 ft | 455 kts | 33° |
| 2026-05-06 17:40 | 52.46567 | 17.09900 | 28801 ft | 455 kts | 33° |
| 2026-05-06 17:41 | 52.51787 | 17.15766 | 28814 ft | 454 kts | 33° |
| 2026-05-06 17:41 | 52.56999 | 17.21627 | 28810 ft | 454 kts | 33° |
| 2026-05-06 17:42 | 52.61323 | 17.26500 | 28775 ft | 454 kts | 33° |
| 2026-05-06 17:42 | 52.66528 | 17.32389 | 28779 ft | 454 kts | 33° |
| 2026-05-06 17:43 | 52.71730 | 17.38298 | 28791 ft | 454 kts | 33° |
| 2026-05-06 17:43 | 52.76929 | 17.44222 | 28788 ft | 454 kts | 33° |
| 2026-05-06 17:44 | 52.82133 | 17.50166 | 28792 ft | 454 kts | 33° |
| 2026-05-06 17:44 | 52.87327 | 17.56117 | 28791 ft | 454 kts | 33° |
| 2026-05-06 17:45 | 52.92525 | 17.62081 | 28788 ft | 454 kts | 33° |
| 2026-05-06 17:45 | 52.97704 | 17.68040 | 28262 ft | 450 kts | 33° |
| 2026-05-06 17:46 | 53.00271 | 17.71003 | 27718 ft | 447 kts | 33° |
| 2026-05-06 17:46 | 53.02813 | 17.73948 | 27198 ft | 444 kts | 33° |
| 2026-05-06 17:46 | 53.05336 | 17.76879 | 26686 ft | 441 kts | 33° |
| 2026-05-06 17:46 | 53.07843 | 17.79792 | 26189 ft | 438 kts | 33° |
| 2026-05-06 17:47 | 53.10337 | 17.82686 | 25674 ft | 436 kts | 33° |
| 2026-05-06 17:47 | 53.12822 | 17.85571 | 25161 ft | 434 kts | 33° |
| 2026-05-06 17:47 | 53.15292 | 17.88446 | 24664 ft | 432 kts | 33° |
| 2026-05-06 17:47 | 53.17756 | 17.91320 | 24124 ft | 432 kts | 33° |
| 2026-05-06 17:48 | 53.20214 | 17.94194 | 23588 ft | 431 kts | 33° |
| 2026-05-06 17:48 | 53.22670 | 17.97065 | 22991 ft | 431 kts | 33° |
| 2026-05-06 17:48 | 53.25120 | 17.99928 | 22445 ft | 429 kts | 33° |
| 2026-05-06 17:48 | 53.27556 | 18.02785 | 21900 ft | 426 kts | 33° |
| 2026-05-06 17:49 | 53.29965 | 18.05623 | 21434 ft | 422 kts | 34° |
| 2026-05-06 17:49 | 53.32362 | 18.08454 | 20975 ft | 419 kts | 34° |
| 2026-05-06 17:49 | 53.34743 | 18.11266 | 20371 ft | 419 kts | 33° |
| 2026-05-06 17:49 | 53.37091 | 18.14037 | 19914 ft | 408 kts | 33° |
| 2026-05-06 17:50 | 53.39373 | 18.16793 | 19297 ft | 398 kts | 35° |
| 2026-05-06 17:50 | 53.41561 | 18.19593 | 18849 ft | 395 kts | 36° |
| 2026-05-06 17:50 | 53.43716 | 18.22447 | 18378 ft | 394 kts | 37° |
| 2026-05-06 17:50 | 53.45850 | 18.25318 | 17876 ft | 393 kts | 37° |
| 2026-05-06 17:51 | 53.47980 | 18.28188 | 17392 ft | 391 kts | 37° |
| 2026-05-06 17:51 | 53.50098 | 18.31035 | 16930 ft | 389 kts | 37° |
| 2026-05-06 17:51 | 53.52208 | 18.33854 | 16468 ft | 387 kts | 37° |
| 2026-05-06 17:51 | 53.54312 | 18.36648 | 16009 ft | 385 kts | 37° |
| 2026-05-06 17:52 | 53.56413 | 18.39432 | 15549 ft | 384 kts | 37° |
| 2026-05-06 17:52 | 53.58506 | 18.42205 | 15104 ft | 382 kts | 36° |
| 2026-05-06 17:52 | 53.60611 | 18.44929 | 14619 ft | 382 kts | 34° |
| 2026-05-06 17:52 | 53.62773 | 18.47518 | 14185 ft | 379 kts | 32° |
| 2026-05-06 17:53 | 53.64952 | 18.50000 | 13721 ft | 378 kts | 31° |
| 2026-05-06 17:53 | 53.67123 | 18.52431 | 13221 ft | 370 kts | 31° |
| 2026-05-06 17:53 | 53.69243 | 18.54811 | 12684 ft | 365 kts | 31° |
| 2026-05-06 17:53 | 53.71350 | 18.57189 | 12204 ft | 364 kts | 30° |
| 2026-05-06 17:54 | 53.73612 | 18.58956 | 11801 ft | 353 kts | 10° |
| 2026-05-06 17:54 | 53.75965 | 18.59447 | 11681 ft | 331 kts | 352° |
| 2026-05-06 17:54 | 53.78156 | 18.58823 | 11521 ft | 311 kts | 334° |
| 2026-05-06 17:54 | 53.80087 | 18.57380 | 11283 ft | 300 kts | 327° |
| 2026-05-06 17:55 | 53.81957 | 18.55830 | 11069 ft | 298 kts | 327° |
| 2026-05-06 17:55 | 53.83814 | 18.54288 | 10851 ft | 296 kts | 327° |
| 2026-05-06 17:55 | 53.85658 | 18.52758 | 10637 ft | 295 kts | 327° |
| 2026-05-06 17:55 | 53.87499 | 18.51234 | 10433 ft | 294 kts | 327° |
| 2026-05-06 17:56 | 53.89334 | 18.49713 | 10220 ft | 293 kts | 327° |
| 2026-05-06 17:56 | 53.91188 | 18.48173 | 10007 ft | 293 kts | 327° |
| 2026-05-06 17:56 | 53.92989 | 18.46677 | 9793 ft | 292 kts | 327° |
| 2026-05-06 17:56 | 53.94837 | 18.45142 | 9587 ft | 291 kts | 327° |
| 2026-05-06 17:57 | 53.96653 | 18.43633 | 9369 ft | 290 kts | 327° |
| 2026-05-06 17:57 | 53.98443 | 18.42150 | 9162 ft | 290 kts | 327° |
| 2026-05-06 17:57 | 54.00274 | 18.40627 | 8956 ft | 289 kts | 327° |
| 2026-05-06 17:57 | 54.02073 | 18.39120 | 8762 ft | 288 kts | 327° |
| 2026-05-06 17:58 | 54.03869 | 18.37610 | 8558 ft | 287 kts | 327° |
| 2026-05-06 17:58 | 54.05637 | 18.36122 | 8357 ft | 287 kts | 327° |
| 2026-05-06 17:58 | 54.07446 | 18.34600 | 8160 ft | 286 kts | 327° |
| 2026-05-06 17:58 | 54.09224 | 18.33103 | 7957 ft | 285 kts | 327° |
| 2026-05-06 17:59 | 54.10999 | 18.31605 | 7755 ft | 284 kts | 327° |
| 2026-05-06 17:59 | 54.12769 | 18.30108 | 7644 ft | 284 kts | 327° |
| 2026-05-06 17:59 | 54.14542 | 18.28608 | 7507 ft | 285 kts | 327° |
| 2026-05-06 17:59 | 54.16289 | 18.27128 | 7323 ft | 284 kts | 329° |
| 2026-05-06 18:00 | 54.18055 | 18.25633 | 7123 ft | 282 kts | 329° |
| 2026-05-06 18:00 | 54.19836 | 18.24129 | 6953 ft | 282 kts | 330° |
| 2026-05-06 18:00 | 54.21573 | 18.22665 | 6892 ft | 282 kts | 329° |
| 2026-05-06 18:00 | 54.23336 | 18.21175 | 6814 ft | 273 kts | 329° |
| 2026-05-06 18:01 | 54.25028 | 18.19857 | 6687 ft | 263 kts | 338° |
| 2026-05-06 18:01 | 54.26817 | 18.19383 | 6496 ft | 261 kts | 358° |
| 2026-05-06 18:01 | 54.28559 | 18.19939 | 6316 ft | 258 kts | 19° |
| 2026-05-06 18:01 | 54.30220 | 18.21124 | 6195 ft | 259 kts | 21° |
| 2026-05-06 18:02 | 54.31943 | 18.22106 | 6060 ft | 256 kts | 2° |
| 2026-05-06 18:02 | 54.33664 | 18.21753 | 5923 ft | 247 kts | 333° |
| 2026-05-06 18:02 | 54.35029 | 18.20134 | 5806 ft | 236 kts | 305° |
| 2026-05-06 18:02 | 54.35827 | 18.17760 | 5676 ft | 229 kts | 287° |
| 2026-05-06 18:03 | 54.36429 | 18.15268 | 5546 ft | 230 kts | 288° |
| 2026-05-06 18:03 | 54.37041 | 18.12731 | 5420 ft | 230 kts | 289° |
| 2026-05-06 18:03 | 54.37652 | 18.10198 | 5296 ft | 230 kts | 289° |
| 2026-05-06 18:03 | 54.38262 | 18.07672 | 5166 ft | 230 kts | 289° |
| 2026-05-06 18:04 | 54.38877 | 18.05129 | 5038 ft | 232 kts | 290° |
| 2026-05-06 18:04 | 54.39495 | 18.02584 | 4938 ft | 229 kts | 289° |
| 2026-05-06 18:04 | 54.40107 | 18.00063 | 5014 ft | 229 kts | 288° |
| 2026-05-06 18:04 | 54.40715 | 17.97548 | 5024 ft | 228 kts | 288° |
| 2026-05-06 18:05 | 54.41321 | 17.95023 | 5029 ft | 229 kts | 289° |
| 2026-05-06 18:05 | 54.41929 | 17.92492 | 5030 ft | 230 kts | 289° |
| 2026-05-06 18:05 | 54.42541 | 17.89948 | 5036 ft | 230 kts | 290° |
| 2026-05-06 18:05 | 54.43236 | 17.87492 | 5027 ft | 230 kts | 307° |
| 2026-05-06 18:06 | 54.44497 | 17.85949 | 5036 ft | 225 kts | 341° |
| 2026-05-06 18:06 | 54.46052 | 17.85934 | 5040 ft | 229 kts | 19° |
| 2026-05-06 18:06 | 54.47487 | 17.87037 | 5046 ft | 223 kts | 25° |
| 2026-05-06 18:06 | 54.48896 | 17.88074 | 5044 ft | 218 kts | 25° |
| 2026-05-06 18:07 | 54.50092 | 17.89607 | 5036 ft | 215 kts | 54° |
| 2026-05-06 18:07 | 54.50664 | 17.91940 | 5041 ft | 214 kts | 84° |
| 2026-05-06 18:07 | 54.50461 | 17.94461 | 5039 ft | 216 kts | 111° |
| 2026-05-06 18:07 | 54.49878 | 17.96848 | 5039 ft | 216 kts | 114° |
| 2026-05-06 18:08 | 54.49291 | 17.99256 | 5037 ft | 220 kts | 115° |
| 2026-05-06 18:08 | 54.48701 | 18.01696 | 5035 ft | 219 kts | 116° |
| 2026-05-06 18:08 | 54.48140 | 18.04031 | 4999 ft | 205 kts | 115° |
| 2026-05-06 18:08 | 54.47598 | 18.06279 | 4692 ft | 202 kts | 114° |
| 2026-05-06 18:09 | 54.47065 | 18.08476 | 4401 ft | 196 kts | 113° |
| 2026-05-06 18:09 | 54.46547 | 18.10603 | 4136 ft | 190 kts | 112° |
| 2026-05-06 18:09 | 54.46048 | 18.12655 | 3919 ft | 182 kts | 111° |
| 2026-05-06 18:09 | 54.45567 | 18.14626 | 3675 ft | 175 kts | 109° |
| 2026-05-06 18:10 | 54.45107 | 18.16519 | 3473 ft | 168 kts | 109° |
| 2026-05-06 18:10 | 54.44677 | 18.18294 | 3363 ft | 151 kts | 109° |
| 2026-05-06 18:10 | 54.44291 | 18.19879 | 3249 ft | 139 kts | 109° |
| 2026-05-06 18:10 | 54.43928 | 18.21377 | 3152 ft | 133 kts | 108° |
| 2026-05-06 18:11 | 54.43573 | 18.22843 | 3049 ft | 132 kts | 109° |
| 2026-05-06 18:11 | 54.43223 | 18.24287 | 2959 ft | 131 kts | 108° |
| 2026-05-06 18:11 | 54.42875 | 18.25732 | 2859 ft | 131 kts | 108° |
| 2026-05-06 18:11 | 54.42527 | 18.27173 | 2767 ft | 130 kts | 107° |
| 2026-05-06 18:12 | 54.42179 | 18.28602 | 2661 ft | 129 kts | 107° |
| 2026-05-06 18:12 | 54.41830 | 18.30026 | 2567 ft | 129 kts | 107° |
| 2026-05-06 18:12 | 54.41483 | 18.31443 | 2466 ft | 129 kts | 106° |
| 2026-05-06 18:12 | 54.41136 | 18.32858 | 2246 ft | 128 kts | 105° |
| 2026-05-06 18:13 | 54.40789 | 18.34267 | 2040 ft | 128 kts | 104° |
| 2026-05-06 18:13 | 54.40443 | 18.35669 | 1836 ft | 127 kts | 104° |
| 2026-05-06 18:13 | 54.40100 | 18.37064 | 1641 ft | 127 kts | 103° |
| 2026-05-06 18:13 | 54.39759 | 18.38456 | 1439 ft | 126 kts | 103° |
| 2026-05-06 18:14 | 54.39417 | 18.39855 | 1230 ft | 128 kts | 105° |
| 2026-05-06 18:14 | 54.39072 | 18.41256 | 1037 ft | 127 kts | 105° |
| 2026-05-06 18:14 | 54.38727 | 18.42667 | 816 ft | 129 kts | 105° |
| 2026-05-06 18:14 | 54.38374 | 18.44081 | 650 ft | 129 kts | 103° |
| 2026-05-06 18:15 | 54.38036 | 18.45500 | 470 ft | 127 kts | 104° |
| 2026-05-06 18:15 | 54.37749 | 18.46697 | 457 ft | 85 kts | 112° |
| 2026-05-06 18:15 | 54.37597 | 18.47284 | 462 ft | 21 kts | 115° |
| 2026-05-06 18:15 | 54.37594 | 18.47442 | 465 ft | 6 kts | 84° |
| 2026-05-06 18:16 | 54.37597 | 18.47482 | 465 ft | 0 kts | 84° |
| 2026-05-06 18:16 | 54.37597 | 18.47483 | 465 ft | 1 kts | 84° |
| 2026-05-06 18:16 | 54.37601 | 18.47547 | 465 ft | 7 kts | 84° |
| 2026-05-06 18:17 | 54.37606 | 18.47628 | 465 ft | 8 kts | 82° |
| 2026-05-06 18:17 | 54.37634 | 18.47718 | 467 ft | 10 kts | 25° |
| 2026-05-06 18:17 | 54.37681 | 18.47650 | 463 ft | 10 kts | 296° |
| 2026-05-06 18:17 | 54.37706 | 18.47547 | 460 ft | 9 kts | 293° |
| 2026-05-06 18:18 | 54.37730 | 18.47453 | 462 ft | 8 kts | 293° |
| 2026-05-06 18:18 | 54.37753 | 18.47371 | 460 ft | 7 kts | 295° |
| 2026-05-06 18:18 | 54.37770 | 18.47296 | 460 ft | 5 kts | 289° |
| 2026-05-06 18:18 | 54.37792 | 18.47199 | 458 ft | 16 kts | 292° |
| 2026-05-06 18:19 | 54.37836 | 18.47025 | 458 ft | 14 kts | 293° |
| 2026-05-06 18:19 | 54.37870 | 18.46887 | 459 ft | 11 kts | 293° |
| 2026-05-06 18:19 | 54.37896 | 18.46783 | 458 ft | 8 kts | 293° |
| 2026-05-06 18:19 | 54.37914 | 18.46709 | 459 ft | 5 kts | 293° |
| 2026-05-06 18:20 | 54.37938 | 18.46619 | 459 ft | 12 kts | 302° |
| 2026-05-06 18:20 | 54.38003 | 18.46591 | 460 ft | 10 kts | 17° |
| 2026-05-06 18:20 | 54.38059 | 18.46639 | 460 ft | 8 kts | 27° |
| 2026-05-06 18:20 | 54.38080 | 18.46660 | 457 ft | 3 kts | 33° |
| 2026-05-06 18:21 | 54.38100 | 18.46676 | 460 ft | 0 kts | 24° |